Site:       
  Group:  
  From:      To:        
   
Sensor Name: Furnace      Latitude:-9.57320000 , Longitude:53.92290000
Please click on the Table Headers to view a Graph of the Observations.
TimeMax. Temp. (°C)Min. Temp. (°C)Mean Temp. (°C)Tot. Rain (mm)Mean Wind (kn)Max Gust (kn)Solar Rad. (J\cm2)Humidity (%)Atmos. Press. (mb)Temp. 5cm (°C)Temp. 10cm (°C)Temp. 20cm (°C)Temp. 30cm (°C)Temp. 50cm (°C)Temp. 100cm (°C)Grass Min. (°C)
10/04/2021 23:00:002.30 1.70 2.00 0.00 4.60 15.00 0.00 88.90 1019.40 -999.00 6.80 7.90 7.90 8.10 8.70 -999.00
10/04/2021 22:00:002.30 1.60 2.00 0.00 4.70 9.60 0.00 87.80 1019.10 -999.00 7.30 8.10 7.90 8.10 8.70 -999.00
10/04/2021 21:00:002.30 1.80 2.00 0.00 4.20 10.30 0.00 88.10 1018.60 -999.00 8.00 8.30 7.90 8.10 8.70 -999.00
10/04/2021 20:00:004.00 2.30 3.10 0.00 6.40 14.10 1.50 84.80 1017.80 -999.00 8.60 8.30 7.90 8.00 8.70 -999.00
10/04/2021 19:00:005.10 4.00 4.50 0.00 8.20 19.90 27.40 78.70 1017.10 -999.00 9.20 8.20 7.80 8.00 8.70 -999.00
10/04/2021 18:00:006.60 4.30 5.40 0.10 10.70 22.90 81.80 75.70 1016.40 -999.00 9.40 8.00 7.70 8.00 8.70 -999.00
10/04/2021 17:00:007.00 6.20 6.60 0.00 12.00 22.20 185.00 68.70 1015.90 -999.00 9.20 7.80 7.60 8.10 8.70 -999.00
10/04/2021 16:00:007.20 3.80 5.50 0.00 10.60 21.10 185.40 72.60 1015.90 -999.00 8.90 7.50 7.50 8.10 8.80 -999.00
10/04/2021 15:00:007.40 3.90 5.70 0.20 9.60 21.80 155.20 72.30 1016.10 -999.00 8.60 7.20 7.30 8.10 8.80 -999.00
10/04/2021 14:00:006.30 2.90 4.60 0.00 7.10 13.70 164.20 80.50 1016.40 -999.00 8.00 7.00 7.20 8.10 8.80 -999.00
10/04/2021 13:00:007.10 2.80 4.90 0.40 9.70 24.10 119.50 76.20 1016.60 -999.00 7.60 6.60 7.10 8.20 8.80 -999.00
10/04/2021 12:00:006.60 3.50 5.10 0.00 3.30 6.60 178.10 82.50 1016.80 -999.00 6.60 6.40 7.00 8.20 8.80 -999.00
10/04/2021 11:00:003.70 1.50 2.60 1.30 7.30 18.60 75.50 92.80 1017.10 -999.00 6.20 6.20 7.00 8.20 8.70 -999.00
10/04/2021 10:00:005.90 3.40 4.70 0.10 6.90 18.30 170.50 74.30 1016.80 -999.00 5.40 6.10 7.10 8.30 8.80 -999.00
10/04/2021 09:00:004.90 3.00 4.00 0.00 4.40 10.00 133.30 78.20 1016.90 -999.00 4.70 6.20 7.20 8.40 8.80 -999.00
10/04/2021 08:00:003.00 1.70 2.40 0.00 4.30 10.50 41.20 84.80 1017.10 -999.00 4.50 6.30 7.30 8.40 8.80 -999.00
10/04/2021 07:00:002.10 0.70 1.40 0.00 3.20 8.10 23.10 91.20 1016.80 -999.00 4.50 6.50 7.40 8.40 8.80 -999.00
10/04/2021 06:00:001.80 0.60 1.20 0.00 2.50 6.50 0.40 89.80 1016.80 -999.00 4.80 6.70 7.50 8.50 8.80 -999.00
10/04/2021 05:00:002.10 1.30 1.70 0.00 6.30 12.30 0.00 87.80 1016.80 -999.00 5.00 6.90 7.70 8.50 8.80 -999.00
10/04/2021 04:00:001.80 0.20 1.00 0.00 5.30 10.40 0.00 87.40 1016.70 -999.00 5.20 7.20 7.80 8.50 8.80 -999.00
10/04/2021 03:00:001.00 0.40 0.70 0.00 4.60 8.40 0.00 89.50 1016.80 -999.00 5.50 7.50 8.00 8.60 8.80 -999.00
10/04/2021 02:00:001.80 0.70 1.20 0.00 4.20 7.00 0.00 85.10 1016.80 -999.00 5.90 7.70 8.20 8.60 8.80 -999.00
10/04/2021 01:00:001.90 0.70 1.30 0.00 3.00 7.60 0.00 81.70 1016.90 -999.00 6.20 8.00 8.30 8.60 8.80 -999.00
10/04/2021 00:00:002.00 1.20 1.60 0.00 3.60 6.60 0.00 74.00 1016.90 5.50 6.70 8.40 8.50 8.60 8.80 -2.00
09/04/2021 23:00:001.80 1.30 1.60 0.00 3.30 6.30 0.00 76.60 1016.70 -999.00 7.30 8.70 8.60 8.60 8.80 -999.00
09/04/2021 22:00:002.30 1.50 1.90 0.00 2.80 5.80 0.00 74.50 1016.30 -999.00 7.90 8.90 8.70 8.60 8.80 -999.00